Time;durP1;ratioP1;P1;durP2;ratioP2;P2;SDS_P1;SDS_P2;PMS_P1;PMS_P2;Temp;Humidity;BMP_temperature;BMP_pressure;BME280_temperature;BME280_humidity;BME280_pressure;Samples;Min_cycle;Max_cycle;Signal;HPM_P1;HPM_P2
2022/03/31 00:01:19;;;;;;;44.90;29.10;;;;;;;9.12;57.85;97236.06;106033;1271;98017;-68
2022/03/31 00:03:48;;;;;;;47.90;31.20;;;;;;;9.12;57.86;97239.59;106100;1271;96527;-68
2022/03/31 00:06:16;;;;;;;48.00;28.80;;;;;;;9.12;58.00;97236.23;106189;1271;112397;-67
2022/03/31 00:08:47;;;;;;;45.50;27.80;;;;;;;9.12;58.08;97234.45;106197;1271;96553;-69
2022/03/31 00:11:15;;;;;;;46.80;30.50;;;;;;;9.11;58.14;97232.05;106084;1274;108445;-67
2022/03/31 00:13:45;;;;;;;46.50;30.60;;;;;;;9.11;58.05;97227.25;106107;1274;98367;-68
2022/03/31 00:16:17;;;;;;;45.00;29.80;;;;;;;9.11;58.18;97223.39;106191;1274;98660;-69
2022/03/31 00:18:45;;;;;;;50.90;30.20;;;;;;;9.12;58.21;97222.11;106214;1271;112610;-69
2022/03/31 00:21:13;;;;;;;46.70;30.80;;;;;;;9.12;58.18;97216.61;106172;1274;97711;-71
2022/03/31 00:23:43;;;;;;;51.00;31.90;;;;;;;9.12;58.29;97216.73;106154;1271;108332;-68
2022/03/31 00:26:16;;;;;;;53.20;32.60;;;;;;;9.12;58.36;97213.93;106050;1274;97850;-68
2022/03/31 00:28:46;;;;;;;;;;;;;;;9.11;58.41;97213.45;106196;1274;97871;-69
2022/03/31 00:31:14;;;;;;;45.60;29.20;;;;;;;9.08;58.51;97211.83;106066;1273;111969;-68
2022/03/31 00:33:44;;;;;;;47.90;30.70;;;;;;;9.07;58.42;97206.17;106163;1271;95995;-69
2022/03/31 00:36:14;;;;;;;47.40;29.90;;;;;;;9.08;58.50;97209.52;106154;1271;107833;-68
2022/03/31 00:39:28;;;;;;;48.20;31.40;;;;;;;9.08;58.55;97205.65;106071;1274;96605;-69
2022/03/31 00:41:39;;;;;;;48.90;32.60;;;;;;;9.06;58.66;97201.86;106189;1274;97651;-67
2022/03/31 00:44:08;;;;;;;47.50;30.20;;;;;;;9.05;58.53;97199.95;106146;1274;111752;-68
2022/03/31 00:46:49;;;;;;;45.40;30.00;;;;;;;9.00;58.45;97204.40;106188;1271;97838;-68
2022/03/31 00:49:19;;;;;;;48.40;30.20;;;;;;;8.94;58.52;97199.55;106208;1271;108536;-68
2022/03/31 00:51:50;;;;;;;48.00;30.00;;;;;;;8.91;58.62;97201.38;106138;1274;97834;-68
2022/03/31 00:54:25;;;;;;;47.30;29.80;;;;;;;8.89;58.76;97203.02;106173;1273;97957;-70
2022/03/31 00:56:57;;;;;;;49.90;30.70;;;;;;;8.87;58.94;97203.23;106186;1274;112439;-67
2022/03/31 00:59:27;;;;;;;47.60;29.30;;;;;;;8.87;58.84;97207.26;106075;1271;96403;-68
2022/03/31 01:01:59;;;;;;;47.20;30.60;;;;;;;8.87;58.92;97206.54;106122;1271;108388;-68
2022/03/31 01:04:29;;;;;;;46.20;30.30;;;;;;;8.88;58.93;97204.59;106094;1274;97944;-65
2022/03/31 01:06:57;;;;;;;47.60;30.90;;;;;;;8.87;58.99;97201.46;106159;1271;96326;-68
2022/03/31 01:09:27;;;;;;;50.20;30.80;;;;;;;8.86;59.08;97198.36;106108;1271;112006;-67
2022/03/31 01:11:55;;;;;;;48.70;30.80;;;;;;;8.85;59.09;97197.19;106098;1271;96782;-67
2022/03/31 01:14:24;;;;;;;47.90;31.30;;;;;;;8.84;59.13;97197.71;106040;1271;108245;-67
2022/03/31 01:16:53;;;;;;;52.80;31.30;;;;;;;8.82;58.91;97196.45;106039;1274;97937;-67
2022/03/31 01:19:25;;;;;;;45.90;29.40;;;;;;;8.80;59.12;97189.73;106095;1271;98591;-67
2022/03/31 01:21:55;;;;;;;45.80;31.00;;;;;;;8.79;59.29;97186.99;106067;1271;112080;-68
2022/03/31 01:24:23;;;;;;;51.40;32.90;;;;;;;8.79;59.40;97184.70;106101;1271;97916;-67
2022/03/31 01:26:51;;;;;;;50.80;32.90;;;;;;;8.78;59.32;97179.08;106044;1271;108335;-69
2022/03/31 01:29:21;;;;;;;52.80;33.80;;;;;;;8.76;59.22;97178.38;106164;1271;96334;-71
2022/03/31 01:31:51;;;;;;;52.30;33.30;;;;;;;8.76;59.46;97182.16;106131;1270;97968;-69
2022/03/31 01:34:19;;;;;;;53.00;33.10;;;;;;;8.74;59.22;97187.95;106157;1271;112006;-67
2022/03/31 01:36:48;;;;;;;51.70;34.10;;;;;;;8.66;59.37;97185.02;106153;1271;97967;-67
2022/03/31 01:39:16;;;;;;;51.90;32.70;;;;;;;8.60;59.35;97189.85;106142;1274;108457;-68
2022/03/31 01:41:45;;;;;;;56.60;33.80;;;;;;;8.58;59.54;97187.34;106105;1271;97960;-68
2022/03/31 01:44:13;;;;;;;50.20;31.90;;;;;;;8.60;59.76;97190.69;106178;1271;97947;-67
2022/03/31 01:46:43;;;;;;;56.20;34.80;;;;;;;8.62;59.89;97194.58;106120;1271;112011;-68
2022/03/31 01:49:11;;;;;;;58.00;36.90;;;;;;;8.64;59.62;97196.36;106044;1273;97889;-68
2022/03/31 01:51:40;;;;;;;54.60;34.70;;;;;;;8.64;59.76;97198.99;105988;1271;108417;-69
2022/03/31 01:54:08;;;;;;;55.60;36.00;;;;;;;8.65;59.72;97201.39;106015;1274;96427;-68
2022/03/31 01:56:42;;;;;;;52.10;34.20;;;;;;;8.66;59.77;97198.12;106092;1272;98003;-69
2022/03/31 01:59:10;;;;;;;57.50;37.50;;;;;;;8.67;59.83;97199.61;106059;1274;112059;-69
2022/03/31 02:01:39;;;;;;;58.20;36.30;;;;;;;8.65;59.83;97198.60;106093;1271;97938;-66
2022/03/31 02:04:08;;;;;;;56.90;36.80;;;;;;;8.59;59.77;97200.70;106072;1271;108376;-67
2022/03/31 02:06:38;;;;;;;52.90;34.20;;;;;;;8.52;59.73;97203.53;106053;1271;98682;-68
2022/03/31 02:09:06;;;;;;;56.40;34.00;;;;;;;8.46;59.80;97209.52;106049;1274;98221;-68
2022/03/31 02:11:35;;;;;;;50.60;32.50;;;;;;;8.42;60.10;97209.17;106048;1271;110974;-65
2022/03/31 02:14:05;;;;;;;49.70;30.90;;;;;;;8.34;59.90;97208.26;106068;1271;98045;-65
2022/03/31 02:16:35;;;;;;;52.10;32.60;;;;;;;8.26;59.81;97213.83;106050;1271;108130;-67
2022/03/31 02:19:05;;;;;;;49.60;31.30;;;;;;;8.21;60.22;97215.69;106151;1271;97987;-66
2022/03/31 02:21:36;;;;;;;53.70;33.20;;;;;;;8.21;60.37;97218.16;106062;1273;98000;-65
2022/03/31 02:24:08;;;;;;;50.40;31.90;;;;;;;8.22;60.46;97220.16;106037;1274;112474;-68
2022/03/31 02:26:38;;;;;;;58.20;34.30;;;;;;;8.23;60.14;97219.55;106076;1274;97952;-65
2022/03/31 02:29:06;;;;;;;50.70;30.90;;;;;;;8.19;60.24;97220.58;106062;1274;108356;-67
2022/03/31 02:31:36;;;;;;;53.10;34.00;;;;;;;8.20;60.61;97218.43;106033;1274;97867;-69
2022/03/31 02:34:06;;;;;;;52.00;33.80;;;;;;;8.20;60.60;97217.52;106075;1274;95364;-66
2022/03/31 02:36:34;;;;;;;55.70;32.50;;;;;;;8.22;60.49;97215.56;106080;1274;111394;-67
2022/03/31 02:39:04;;;;;;;52.80;33.40;;;;;;;8.23;60.53;97219.05;106113;1274;98046;-66
2022/03/31 02:41:32;;;;;;;53.20;33.60;;;;;;;8.22;60.70;97217.37;106072;1274;108395;-67
2022/03/31 02:44:00;;;;;;;57.30;34.00;;;;;;;8.19;60.55;97214.11;106084;1274;97863;-68
2022/03/31 02:46:28;;;;;;;55.90;33.80;;;;;;;8.15;60.66;97209.52;106150;1271;95326;-69
2022/03/31 02:49:00;;;;;;;53.90;33.10;;;;;;;8.16;60.75;97207.48;106061;1271;113242;-67
2022/03/31 02:51:29;;;;;;;51.40;32.10;;;;;;;8.19;60.71;97205.97;106097;1271;98081;-68
2022/03/31 02:56:46;;;;;;;55.90;32.70;;;;;;;8.21;60.90;97207.52;106087;1271;97860;-68
2022/03/31 02:59:16;;;;;;;53.60;32.80;;;;;;;8.22;60.86;97208.20;106072;1274;98526;-69
2022/03/31 03:01:44;;;;;;;55.90;34.40;;;;;;;8.23;60.96;97213.94;106127;1271;112008;-68
2022/03/31 03:04:14;;;;;;;56.20;34.90;;;;;;;8.24;60.90;97210.64;106100;1271;98047;-67
2022/03/31 03:06:44;;;;;;;54.20;35.10;;;;;;;8.25;61.14;97214.92;106051;1271;108385;-67
2022/03/31 03:09:12;;;;;;;55.10;34.40;;;;;;;8.25;60.96;97215.66;106136;1271;97963;-69
2022/03/31 03:11:42;;;;;;;56.70;34.30;;;;;;;8.24;60.97;97217.18;106175;1271;97790;-68
2022/03/31 03:14:12;;;;;;;53.50;33.40;;;;;;;8.18;61.00;97215.53;106055;1274;110900;-67
2022/03/31 03:16:44;;;;;;;55.50;34.20;;;;;;;8.19;61.06;97218.83;106052;1274;97737;-68
2022/03/31 03:19:13;;;;;;;55.50;33.70;;;;;;;8.22;61.13;97217.55;106049;1274;108415;-68
2022/03/31 03:21:42;;;;;;;55.50;34.80;;;;;;;8.24;61.28;97226.16;106033;1271;97871;-68
2022/03/31 03:24:11;;;;;;;53.30;33.10;;;;;;;8.26;61.29;97222.30;106077;1271;95286;-68
2022/03/31 03:26:40;;;;;;;53.00;33.20;;;;;;;8.25;61.32;97217.64;106061;1274;112128;-68
2022/03/31 03:29:09;;;;;;;52.60;32.40;;;;;;;8.22;61.24;97211.56;106112;1271;97896;-68
2022/03/31 03:31:37;;;;;;;52.50;33.20;;;;;;;8.23;61.47;97208.95;105989;1274;108428;-67
2022/03/31 03:34:09;;;;;;;52.30;32.30;;;;;;;8.25;61.29;97212.12;106030;1274;97963;-68
2022/03/31 03:36:39;;;;;;;53.30;32.80;;;;;;;8.28;61.49;97210.45;106039;1271;95398;-66
2022/03/31 03:39:06;;;;;;;51.50;30.90;;;;;;;8.29;61.56;97209.48;105287;1271;1044290;-69
2022/03/31 03:41:34;;;;;;;50.70;31.70;;;;;;;8.27;61.38;97207.92;106139;1274;97896;-66
2022/03/31 03:44:03;;;;;;;52.00;33.30;;;;;;;8.28;61.61;97212.40;106140;1274;108366;-69
2022/03/31 03:46:32;;;;;;;49.10;30.70;;;;;;;8.29;61.56;97215.30;106063;1274;97958;-68
2022/03/31 03:49:03;;;;;;;52.40;31.90;;;;;;;8.29;61.33;97215.27;106092;1274;97845;-68
2022/03/31 03:51:33;;;;;;;54.00;31.80;;;;;;;8.27;61.33;97215.52;106047;1272;112011;-69
2022/03/31 03:54:01;;;;;;;53.20;32.70;;;;;;;8.21;61.34;97216.04;106083;1272;97978;-69
2022/03/31 03:56:28;;;;;;;52.10;31.90;;;;;;;8.15;61.23;97215.71;106086;1271;107659;-67
2022/03/31 03:58:56;;;;;;;52.30;31.90;;;;;;;8.11;61.55;97219.63;106052;1274;97986;-68
2022/03/31 04:01:26;;;;;;;54.60;34.30;;;;;;;8.12;61.51;97225.15;106101;1274;97870;-69
2022/03/31 04:03:54;;;;;;;40.10;23.00;;;;;;;8.11;61.66;97223.48;106091;1274;111956;-67
2022/03/31 04:06:22;;;;;;;35.60;21.00;;;;;;;8.02;61.43;97222.89;106149;1271;97893;-67
2022/03/31 04:08:50;;;;;;;32.00;19.30;;;;;;;8.00;61.62;97227.16;106112;1271;107752;-70
2022/03/31 04:11:18;;;;;;;29.50;15.80;;;;;;;8.00;61.66;97231.73;106089;1271;97876;-69
2022/03/31 04:13:50;;;;;;;30.30;15.80;;;;;;;7.96;61.70;97229.39;106023;1271;97707;-69
2022/03/31 04:16:18;;;;;;;27.30;14.90;;;;;;;7.94;61.54;97231.73;105995;1271;111321;-71
2022/03/31 04:18:46;;;;;;;27.70;15.10;;;;;;;7.89;61.61;97234.84;105952;1271;97890;-69
2022/03/31 04:21:15;;;;;;;27.60;14.50;;;;;;;7.84;61.68;97236.36;106035;1271;108409;-70
2022/03/31 04:23:43;;;;;;;26.30;13.70;;;;;;;7.77;61.54;97238.89;105984;1271;97886;-69
2022/03/31 04:26:13;;;;;;;26.50;14.20;;;;;;;7.73;61.46;97243.99;105967;1271;96480;-69
2022/03/31 04:28:41;;;;;;;27.40;12.80;;;;;;;7.70;61.80;97245.83;106073;1271;112021;-69
2022/03/31 04:31:09;;;;;;;29.00;15.10;;;;;;;7.65;61.68;97247.73;106119;1271;97909;-69
2022/03/31 04:33:39;;;;;;;25.00;13.00;;;;;;;7.54;61.67;97248.71;105913;1271;109077;-69
2022/03/31 04:36:07;;;;;;;24.50;11.50;;;;;;;7.53;61.60;97249.47;106223;1271;98451;-69
2022/03/31 04:38:38;;;;;;;21.60;10.20;;;;;;;7.53;61.76;97252.52;107993;1271;95949;-68
2022/03/31 04:41:06;;;;;;;21.40;10.20;;;;;;;7.53;61.76;97254.81;108027;1271;111344;-69
2022/03/31 04:43:34;;;;;;;23.10;10.80;;;;;;;7.53;61.92;97261.15;106059;1271;97979;-68
2022/03/31 04:46:04;;;;;;;21.30;10.90;;;;;;;7.55;61.82;97265.56;106046;1271;108322;-69
2022/03/31 04:48:35;;;;;;;23.60;11.70;;;;;;;7.57;61.72;97268.73;106051;1272;96314;-69
2022/03/31 04:51:06;;;;;;;26.50;13.20;;;;;;;7.58;61.99;97267.73;106068;1271;97860;-70
2022/03/31 04:53:34;;;;;;;24.50;11.50;;;;;;;7.57;61.83;97270.46;106056;1271;112085;-68
2022/03/31 04:56:02;;;;;;;21.60;11.00;;;;;;;7.49;61.59;97269.10;106068;1271;97837;-69
2022/03/31 04:58:30;;;;;;;24.70;10.40;;;;;;;7.43;61.88;97269.41;106058;1271;107766;-70
2022/03/31 05:00:57;;;;;;;22.80;10.00;;;;;;;7.43;62.21;97271.90;106084;1271;97871;-70
2022/03/31 05:03:25;;;;;;;22.90;10.60;;;;;;;7.41;62.12;97275.76;106139;1271;97892;-69
2022/03/31 05:05:56;;;;;;;23.70;10.80;;;;;;;7.40;62.14;97280.95;106111;1272;111366;-69
2022/03/31 05:08:24;;;;;;;21.10;10.10;;;;;;;7.37;61.93;97289.89;106105;1271;97892;-70
2022/03/31 05:10:53;;;;;;;21.40;10.20;;;;;;;7.30;62.03;97291.52;106034;1271;108269;-70
2022/03/31 05:13:21;;;;;;;21.50;10.30;;;;;;;7.28;62.20;97293.66;106079;1271;97988;-70
2022/03/31 05:15:53;;;;;;;22.80;11.30;;;;;;;7.28;62.19;97292.61;106068;1271;97871;-69
2022/03/31 05:18:21;;;;;;;22.70;11.30;;;;;;;7.29;62.18;97295.65;106081;1271;111507;-70
2022/03/31 05:20:49;;;;;;;23.30;11.70;;;;;;;7.29;62.15;97298.20;106100;1271;97872;-70
2022/03/31 05:23:19;;;;;;;21.70;10.30;;;;;;;7.24;62.43;97297.88;106072;1274;107540;-71
2022/03/31 05:25:48;;;;;;;20.30;10.10;;;;;;;7.19;62.01;97293.42;106078;1271;98007;-69
2022/03/31 05:28:18;;;;;;;20.60;9.60;;;;;;;7.18;62.29;97294.52;106071;1271;97923;-69
2022/03/31 05:30:51;;;;;;;21.80;10.10;;;;;;;7.17;62.38;97294.78;106033;1274;111972;-69
2022/03/31 05:33:19;;;;;;;21.10;10.30;;;;;;;7.17;62.34;97297.08;106086;1274;97882;-71
2022/03/31 05:35:48;;;;;;;24.50;11.90;;;;;;;7.18;62.41;97296.88;106076;1271;107683;-70
2022/03/31 05:38:16;;;;;;;22.30;10.90;;;;;;;7.16;62.34;97296.11;106077;1271;95937;-69
2022/03/31 05:40:45;;;;;;;25.60;12.80;;;;;;;7.12;62.29;97299.98;106164;1271;97988;-69
2022/03/31 05:43:15;;;;;;;27.30;14.10;;;;;;;7.10;62.35;97302.06;106143;1271;111027;-69
2022/03/31 05:45:43;;;;;;;28.20;14.90;;;;;;;7.11;62.37;97307.11;106095;1271;97912;-69
2022/03/31 05:48:16;;;;;;;27.80;15.20;;;;;;;7.12;62.33;97309.47;106036;1271;108348;-69
2022/03/31 05:50:43;;;;;;;25.40;12.90;;;;;;;7.13;62.38;97309.08;106074;1271;97954;-64
2022/03/31 05:53:13;;;;;;;22.90;11.10;;;;;;;7.12;62.53;97304.55;106127;1271;97960;-68
2022/03/31 05:55:43;;;;;;;26.10;11.70;;;;;;;7.13;62.62;97304.84;106118;1271;112198;-70
2022/03/31 05:58:13;;;;;;;21.80;10.40;;;;;;;7.13;62.69;97302.35;106193;1271;97105;-69
2022/03/31 06:00:41;;;;;;;25.90;10.60;;;;;;;7.10;62.49;97302.95;106189;1271;107700;-67
2022/03/31 06:03:11;;;;;;;21.60;11.10;;;;;;;7.11;62.66;97305.40;106087;1271;97867;-69
2022/03/31 06:05:40;;;;;;;20.40;9.40;;;;;;;7.13;62.73;97309.39;106170;1271;95336;-70
2022/03/31 06:08:07;;;;;;;19.90;9.10;;;;;;;7.14;62.90;97309.50;106118;1274;111948;-70
2022/03/31 06:10:42;;;;;;;;;;;;;;;7.13;62.79;97313.45;106161;1271;97955;-69
2022/03/31 06:13:13;;;;;;;17.10;6.70;;;;;;;7.09;62.69;97317.48;106154;1271;108399;-67
2022/03/31 06:15:41;;;;;;;16.60;6.80;;;;;;;7.09;62.80;97316.33;106188;1271;97866;-69
2022/03/31 06:18:10;;;;;;;15.00;6.50;;;;;;;7.08;62.67;97320.38;106211;1271;96391;-68
2022/03/31 06:20:40;;;;;;;14.90;6.10;;;;;;;7.10;62.87;97321.30;106128;1271;112744;-70
2022/03/31 06:23:10;;;;;;;13.10;5.60;;;;;;;7.10;62.78;97323.40;106116;1271;95357;-68
2022/03/31 06:25:44;;;;;;;13.60;6.30;;;;;;;7.11;62.75;97326.31;106073;1271;108664;-72
2022/03/31 06:28:14;;;;;;;11.80;5.20;;;;;;;7.12;62.85;97328.66;106115;1271;97866;-69
2022/03/31 06:30:42;;;;;;;10.10;4.90;;;;;;;7.09;62.77;97327.73;106160;1271;97858;-71
2022/03/31 06:33:18;;;;;;;11.90;5.20;;;;;;;7.07;63.00;97328.77;106191;1271;111759;-69
2022/03/31 06:35:49;;;;;;;11.20;5.00;;;;;;;7.10;63.00;97332.79;106119;1271;96538;-70
2022/03/31 06:38:17;;;;;;;11.10;5.10;;;;;;;7.10;62.81;97332.56;106122;1271;107746;-69
2022/03/31 06:41:06;;;;;;;10.20;4.80;;;;;;;7.11;62.99;97334.61;106183;1271;97913;-68
2022/03/31 06:43:39;;;;;;;12.60;5.20;;;;;;;7.08;62.80;97336.31;106130;1271;97875;-69
2022/03/31 06:46:10;;;;;;;12.90;5.90;;;;;;;7.05;62.77;97341.66;106154;1271;111389;-70
2022/03/31 06:48:42;;;;;;;9.80;4.90;;;;;;;7.05;62.69;97346.63;106175;1271;97906;-69
2022/03/31 06:51:14;;;;;;;18.20;5.40;;;;;;;7.00;62.81;97344.52;106108;1271;107733;-71
2022/03/31 06:53:45;;;;;;;13.20;5.70;;;;;;;6.97;62.68;97348.44;106149;1271;97899;-69
2022/03/31 06:56:18;;;;;;;12.50;5.00;;;;;;;7.00;63.09;97345.78;106177;1271;97942;-68
2022/03/31 06:58:46;;;;;;;14.50;6.10;;;;;;;7.01;63.13;97345.67;106200;1271;111425;-69
2022/03/31 07:01:14;;;;;;;16.60;6.90;;;;;;;7.02;63.08;97347.52;106141;1271;97870;-68
2022/03/31 07:03:45;;;;;;;18.10;6.70;;;;;;;7.01;63.03;97353.80;106116;1271;107572;-70
2022/03/31 07:06:13;;;;;;;15.90;6.40;;;;;;;6.98;62.88;97353.50;106179;1271;96386;-71
2022/03/31 07:08:44;;;;;;;14.60;6.40;;;;;;;6.98;63.00;97352.43;106217;1271;97848;-70
2022/03/31 07:11:13;;;;;;;14.10;6.20;;;;;;;6.98;63.10;97355.63;106141;1274;111227;-68
2022/03/31 07:13:44;;;;;;;15.80;6.00;;;;;;;6.91;63.13;97360.13;106069;1274;97963;-69
2022/03/31 07:16:16;;;;;;;12.70;5.80;;;;;;;6.82;63.08;97367.06;106084;1271;107714;-68
2022/03/31 07:18:47;;;;;;;14.90;6.30;;;;;;;6.71;63.07;97368.11;106100;1271;97937;-69
2022/03/31 07:21:15;;;;;;;13.80;6.20;;;;;;;6.64;62.99;97373.81;106157;1271;97870;-69
2022/03/31 07:23:48;;;;;;;13.60;6.20;;;;;;;6.61;63.03;97371.82;106164;1271;112011;-69
2022/03/31 07:26:22;;;;;;;16.80;6.90;;;;;;;6.59;62.99;97375.62;106191;1271;97872;-69
2022/03/31 07:28:50;;;;;;;16.20;7.10;;;;;;;6.59;63.17;97374.41;106083;1271;108269;-69
2022/03/31 07:31:26;;;;;;;14.00;6.50;;;;;;;6.59;63.15;97375.09;106032;1271;97879;-69
2022/03/31 07:33:57;;;;;;;13.30;5.90;;;;;;;6.51;62.99;97384.89;106097;1271;97843;-69
2022/03/31 07:36:28;;;;;;;14.30;5.70;;;;;;;6.45;63.06;97393.53;106058;1270;111464;-70
2022/03/31 07:38:56;;;;;;;14.50;6.40;;;;;;;6.35;63.14;97396.59;106142;1271;97969;-70
2022/03/31 07:41:26;;;;;;;13.60;5.80;;;;;;;6.29;63.13;97400.13;106070;1271;108978;-69
2022/03/31 07:43:54;;;;;;;15.90;6.90;;;;;;;6.28;63.26;97406.92;106000;1271;97957;-69
2022/03/31 07:46:23;;;;;;;13.90;6.40;;;;;;;6.26;63.14;97409.48;106087;1271;97837;-72
2022/03/31 07:48:52;;;;;;;13.80;6.00;;;;;;;6.24;63.13;97411.38;106086;1271;112472;-70
2022/03/31 07:51:20;;;;;;;13.60;6.20;;;;;;;6.18;63.09;97407.66;106143;1271;95468;-70
2022/03/31 07:53:49;;;;;;;12.20;5.30;;;;;;;6.14;63.13;97406.80;106161;1271;108247;-69
2022/03/31 07:56:20;;;;;;;12.50;6.20;;;;;;;6.05;63.52;97413.97;106090;1271;97941;-69
2022/03/31 07:58:48;;;;;;;12.20;5.40;;;;;;;5.93;63.26;97418.59;106140;1271;96545;-70
2022/03/31 08:01:16;;;;;;;12.30;5.40;;;;;;;5.85;63.07;97420.64;105915;1271;112254;-69
2022/03/31 08:03:46;;;;;;;12.30;5.80;;;;;;;5.80;63.05;97424.88;105955;1274;97953;-69
2022/03/31 08:06:14;;;;;;;14.10;5.80;;;;;;;5.78;63.11;97426.80;106060;1271;107627;-69
2022/03/31 08:08:42;;;;;;;14.20;6.30;;;;;;;5.79;63.15;97433.97;106125;1271;97985;-70
2022/03/31 08:11:10;;;;;;;15.80;6.80;;;;;;;5.79;63.20;97437.09;106164;1271;97853;-67
2022/03/31 08:13:38;;;;;;;15.00;6.80;;;;;;;5.81;63.29;97444.16;106174;1271;110404;-69
2022/03/31 08:16:09;;;;;;;13.20;6.60;;;;;;;5.83;63.35;97447.02;106182;1271;97848;-69
2022/03/31 08:18:37;;;;;;;13.20;6.10;;;;;;;5.81;63.49;97460.07;106153;1271;107834;-69
2022/03/31 08:21:05;;;;;;;11.30;5.20;;;;;;;5.73;63.28;97464.48;106176;1271;98766;-69
2022/03/31 08:23:33;;;;;;;11.90;5.50;;;;;;;5.66;63.29;97465.71;106203;1271;97950;-66
2022/03/31 08:26:04;;;;;;;12.30;5.60;;;;;;;5.66;63.32;97471.55;106195;1271;112372;-70
2022/03/31 08:28:34;;;;;;;12.80;5.70;;;;;;;5.67;63.42;97473.59;106208;1274;97950;-70
2022/03/31 08:31:02;;;;;;;12.50;5.50;;;;;;;5.68;63.49;97479.13;106148;1271;108059;-70
2022/03/31 08:33:30;;;;;;;11.60;5.70;;;;;;;5.63;63.53;97477.98;106172;1271;97930;-69
2022/03/31 08:35:58;;;;;;;14.90;6.60;;;;;;;5.60;63.39;97475.33;106229;1271;95217;-70
2022/03/31 08:38:26;;;;;;;14.70;6.60;;;;;;;5.60;63.54;97474.48;106174;1273;111413;-69
2022/03/31 08:40:54;;;;;;;13.60;5.70;;;;;;;5.59;63.43;97471.58;106160;1271;97912;-70
2022/03/31 08:43:28;;;;;;;12.20;6.00;;;;;;;5.60;63.43;97468.73;106066;1271;106599;-69
2022/03/31 08:46:01;;;;;;;11.70;5.40;;;;;;;5.61;63.47;97470.42;106083;1271;97847;-69
2022/03/31 08:48:32;;;;;;;12.40;6.00;;;;;;;5.62;63.54;97467.49;106203;1271;97846;-70
2022/03/31 08:51:01;;;;;;;15.10;6.80;;;;;;;5.66;63.57;97467.16;106143;1271;111416;-69
2022/03/31 08:53:29;;;;;;;13.30;6.40;;;;;;;5.69;63.50;97470.80;106082;1271;97935;-70
2022/03/31 08:55:56;;;;;;;13.30;6.20;;;;;;;5.73;63.54;97471.05;106075;1270;107678;-69
2022/03/31 08:58:25;;;;;;;14.90;6.60;;;;;;;5.72;63.58;97468.41;106062;1271;97934;-70
2022/03/31 09:00:55;;;;;;;15.10;6.50;;;;;;;5.67;63.46;97469.39;106145;1271;97828;-70
2022/03/31 09:03:37;;;;;;;14.80;6.80;;;;;;;5.65;63.52;97476.05;106067;1271;110592;-69
2022/03/31 09:06:07;;;;;;;13.70;6.00;;;;;;;5.66;63.59;97479.63;106127;1271;97950;-69
2022/03/31 09:08:36;;;;;;;11.90;5.60;;;;;;;5.67;63.64;97480.08;106144;1271;106053;-68
2022/03/31 09:11:08;;;;;;;12.60;5.80;;;;;;;5.63;64.93;97478.31;106064;1271;97843;-68
2022/03/31 09:13:40;;;;;;;12.00;4.90;;;;;;;5.48;63.85;97479.95;106144;1271;95298;-69
2022/03/31 09:16:12;;;;;;;14.40;6.00;;;;;;;5.44;63.75;97481.52;106080;1271;112011;-70
2022/03/31 09:18:43;;;;;;;13.60;5.80;;;;;;;5.43;63.82;97482.48;106148;1271;97955;-71
2022/03/31 09:21:15;;;;;;;13.60;5.70;;;;;;;5.40;63.64;97483.08;106163;1270;107771;-69
2022/03/31 09:23:46;;;;;;;14.10;6.20;;;;;;;5.36;63.56;97487.23;106138;1271;95256;-69
2022/03/31 09:26:18;;;;;;;12.90;6.30;;;;;;;5.34;63.97;97488.77;106075;1271;95355;-68
2022/03/31 09:28:47;;;;;;;10.60;5.30;;;;;;;5.28;64.60;97493.25;106098;1271;112017;-69
2022/03/31 09:31:27;;;;;;;14.00;5.60;;;;;;;5.18;63.93;97491.71;106098;1270;97900;-69
2022/03/31 09:33:59;;;;;;;13.00;6.20;;;;;;;5.18;64.01;97496.48;106091;1271;107694;-69
2022/03/31 09:36:30;;;;;;;13.20;6.30;;;;;;;5.20;63.93;97491.58;106075;1271;95280;-69
2022/03/31 09:39:13;;;;;;;13.90;6.10;;;;;;;5.25;64.04;97493.68;106073;1271;97859;-70
2022/03/31 09:41:50;;;;;;;10.60;5.00;;;;;;;5.31;64.02;97489.85;106052;1271;111311;-70
2022/03/31 09:44:22;;;;;;;11.20;5.00;;;;;;;5.29;63.97;97485.16;106126;1271;97953;-68
2022/03/31 09:46:53;;;;;;;12.00;5.10;;;;;;;5.25;64.02;97488.08;106162;1271;107704;-70
2022/03/31 09:49:21;;;;;;;14.20;5.60;;;;;;;5.26;63.94;97487.67;106147;1271;97944;-70
2022/03/31 09:51:56;;;;;;;13.40;6.10;;;;;;;5.31;64.03;97488.49;106008;1271;97862;-71
2022/03/31 09:54:29;;;;;;;14.80;6.60;;;;;;;5.37;63.96;97486.07;106107;1271;112162;-68
2022/03/31 09:57:01;;;;;;;16.50;6.80;;;;;;;5.42;64.15;97488.51;106113;1271;97958;-68
2022/03/31 09:59:38;;;;;;;13.90;6.00;;;;;;;5.44;64.11;97488.19;106005;1271;108291;-69
2022/03/31 10:02:11;;;;;;;13.30;6.00;;;;;;;5.44;64.08;97485.42;106051;1274;97864;-69
2022/03/31 10:04:46;;;;;;;12.30;5.00;;;;;;;5.44;64.22;97486.42;106099;1271;97863;-70
2022/03/31 10:07:16;;;;;;;12.50;5.70;;;;;;;5.41;64.30;97485.60;106170;1271;111360;-70
2022/03/31 10:09:44;;;;;;;12.50;5.90;;;;;;;5.35;64.16;97487.27;106162;1271;99012;-69
2022/03/31 10:12:24;;;;;;;12.50;5.50;;;;;;;5.35;64.03;97484.48;106087;1271;108114;-69
2022/03/31 10:15:05;;;;;;;12.20;5.40;;;;;;;5.34;64.06;97487.89;105981;1271;97927;-67
2022/03/31 10:17:36;;;;;;;15.00;6.20;;;;;;;5.36;64.17;97485.07;106104;1271;97869;-68
2022/03/31 10:20:14;;;;;;;16.20;7.00;;;;;;;5.41;64.21;97484.22;106062;1271;112011;-70
2022/03/31 10:25:47;;;;;;;18.60;7.60;;;;;;;5.41;64.46;97481.41;106139;1271;107755;-70
2022/03/31 10:28:21;;;;;;;16.40;7.40;;;;;;;5.35;64.25;97477.77;106119;1271;95198;-71
2022/03/31 10:31:05;;;;;;;17.70;7.00;;;;;;;5.34;64.22;97474.89;106081;1271;97865;-70
2022/03/31 10:33:42;;;;;;;15.30;6.40;;;;;;;5.31;64.37;97476.52;106069;1271;111396;-69
2022/03/31 10:36:18;;;;;;;14.90;6.40;;;;;;;5.25;64.46;97475.89;106097;1271;97968;-70
2022/03/31 10:39:02;;;;;;;14.80;5.80;;;;;;;5.17;64.78;97476.19;106097;1270;107645;-68
2022/03/31 10:41:34;;;;;;;14.10;6.00;;;;;;;5.11;64.47;97479.81;106064;1271;98008;-69
2022/03/31 10:44:12;;;;;;;13.40;6.20;;;;;;;5.10;64.45;97479.00;106084;1271;97887;-70
2022/03/31 10:46:45;;;;;;;16.10;6.40;;;;;;;5.12;64.38;97483.62;106009;1271;112128;-68
2022/03/31 10:49:20;;;;;;;17.40;7.20;;;;;;;5.11;64.23;97479.48;106169;1274;97916;-69
2022/03/31 10:51:48;;;;;;;17.00;7.10;;;;;;;5.11;64.34;97477.36;106214;1271;107655;-71
2022/03/31 10:54:33;;;;;;;16.10;6.90;;;;;;;5.10;64.46;97477.80;106113;1271;98957;-70
2022/03/31 10:57:12;;;;;;;15.70;6.80;;;;;;;5.01;64.65;97479.61;106089;1271;97836;-71
2022/03/31 10:59:43;;;;;;;17.20;5.90;;;;;;;4.99;64.51;97480.70;105975;1271;111198;-70
2022/03/31 11:02:22;;;;;;;17.70;7.00;;;;;;;4.98;64.46;97482.52;106133;1271;97939;-68
2022/03/31 11:04:58;;;;;;;18.00;7.90;;;;;;;4.95;64.43;97477.10;106167;1271;107790;-70
2022/03/31 11:07:29;;;;;;;21.50;8.90;;;;;;;4.97;64.87;97479.98;106145;1271;97847;-69
2022/03/31 11:10:07;;;;;;;17.80;7.70;;;;;;;4.97;64.82;97476.08;106175;1271;97841;-69
2022/03/31 11:12:38;;;;;;;19.90;7.30;;;;;;;4.97;64.85;97475.59;106165;1271;111055;-67
2022/03/31 11:15:09;;;;;;;17.30;7.10;;;;;;;4.98;64.82;97474.48;106172;1271;97855;-69
2022/03/31 11:17:44;;;;;;;15.50;6.80;;;;;;;4.97;64.86;97470.98;106109;1270;107715;-69
2022/03/31 11:20:26;;;;;;;15.60;6.90;;;;;;;4.99;64.65;97480.66;106135;1271;98005;-70
2022/03/31 11:23:03;;;;;;;18.30;7.90;;;;;;;5.02;64.79;97478.52;106178;1271;97870;-69
2022/03/31 11:25:31;;;;;;;14.30;6.90;;;;;;;5.03;65.02;97478.98;106091;1271;111415;-69
2022/03/31 11:28:08;;;;;;;14.50;7.20;;;;;;;5.01;64.73;97476.64;106167;1273;97898;-69
2022/03/31 11:30:37;;;;;;;13.70;6.20;;;;;;;5.02;65.06;97474.84;105968;1274;108761;-72
2022/03/31 11:33:11;;;;;;;16.60;6.60;;;;;;;5.03;65.20;97472.98;106049;1271;98005;-69
2022/03/31 11:35:43;;;;;;;16.30;7.10;;;;;;;5.02;65.73;97470.30;106059;1274;98065;-69
2022/03/31 11:38:17;;;;;;;19.10;7.20;;;;;;;4.97;65.05;97473.25;106101;1271;111242;-70
2022/03/31 11:40:51;;;;;;;14.80;6.30;;;;;;;4.99;64.87;97473.85;106078;1271;97896;-69